Vlaardingen, Netherlands
Current Conditions -  °F | °C
As of 2:25 PM on Friday 31 Oct 2014 (Local Time) from EHRD Reporting Station
Clear Clear  
Wind Chill: 63°   Ceiling: Unl
Heat Index: 63°   Visibility: 6mi
Dew Point: 55°   Wind: 9mph
Humidity: 77%   Direction: 190°S
Pressure: 30.12"   Gusts: NA
Location:  51.92°N, 4.32°E
Report Text: EHRD 311325Z AUTO 19008KT 150V210 9999 NSC 17/13 Q1020 NOSIG
Loading
Personal Weather Stations






























Interactive Weather Map
Tropical Storm Tracking
New forecast layout! Learn more

10-Day Weather Forecast

Advertisements
Track Severe Weather on mobile